Time;durP1;ratioP1;P1;durP2;ratioP2;P2;SDS_P1;SDS_P2;PMS_P1;PMS_P2;Temp;Humidity;BMP_temperature;BMP_pressure;BME280_temperature;BME280_humidity;BME280_pressure;Samples;Min_cycle;Max_cycle;Signal;HPM_P1;HPM_P2
2021/07/15 00:01:45;;;;;;;27.90;23.27;;;19.30;99.90;;;;;;5033398;28;20041;-88
2021/07/15 00:04:15;;;;;;;25.75;20.67;;;19.30;99.90;;;;;;5049796;28;20049;-88
2021/07/15 00:06:41;;;;;;;30.38;25.65;;;19.30;99.90;;;;;;5049731;28;20025;-88
2021/07/15 00:09:08;;;;;;;31.50;26.67;;;19.20;99.90;;;;;;5049575;28;20108;-87
2021/07/15 00:11:37;;;;;;;32.42;27.30;;;19.20;99.90;;;;;;5049568;28;20481;-87
2021/07/15 00:14:03;;;;;;;27.73;24.75;;;19.20;99.90;;;;;;5033076;28;20032;-87
2021/07/15 00:16:30;;;;;;;29.83;24.13;;;19.20;99.90;;;;;;5049537;28;20044;-89
2021/07/15 00:18:56;;;;;;;31.95;27.23;;;19.10;99.90;;;;;;5049605;28;20119;-86
2021/07/15 00:21:25;;;;;;;29.27;25.50;;;19.10;99.90;;;;;;5049489;28;20036;-88
2021/07/15 00:23:51;;;;;;;26.77;23.20;;;19.10;99.90;;;;;;5049226;28;20028;-88
2021/07/15 00:26:22;;;;;;;26.48;23.67;;;19.10;99.90;;;;;;5049522;28;20033;-89
2021/07/15 00:28:48;;;;;;;25.15;19.63;;;19.10;99.90;;;;;;5049408;28;20041;-88
2021/07/15 00:31:14;;;;;;;27.15;23.38;;;19.10;99.90;;;;;;5049402;28;20033;-89
2021/07/15 00:33:40;;;;;;;23.40;19.65;;;19.10;99.90;;;;;;5032888;28;20033;-88
2021/07/15 00:36:06;;;;;;;22.95;20.45;;;19.10;99.90;;;;;;5048227;28;20029;-88
2021/07/15 00:38:40;;;;;;;29.17;22.08;;;19.00;99.90;;;;;;5049075;28;20094;-87
2021/07/15 00:41:06;;;;;;;23.45;19.25;;;19.00;99.90;;;;;;5049372;28;20033;-88
2021/07/15 00:43:32;;;;;;;21.63;18.80;;;19.00;99.90;;;;;;5048936;28;20036;-88
2021/07/15 00:45:58;;;;;;;21.67;17.40;;;19.00;99.90;;;;;;5049119;28;20619;-88
2021/07/15 00:48:26;;;;;;;22.58;19.88;;;19.00;99.90;;;;;;5048949;28;20542;-88
2021/07/15 00:50:52;;;;;;;21.90;18.45;;;19.00;99.90;;;;;;5032745;28;20060;-89
2021/07/15 00:53:19;;;;;;;18.88;16.88;;;19.00;99.90;;;;;;5049004;28;20062;-88
2021/07/15 00:55:45;;;;;;;19.58;16.55;;;19.00;99.90;;;;;;5052009;28;20048;-90
2021/07/15 00:58:15;;;;;;;22.33;18.00;;;18.90;99.90;;;;;;5052114;28;20078;-88
2021/07/15 01:00:44;;;;;;;20.27;15.88;;;18.90;99.90;;;;;;5052238;28;20467;-89
2021/07/15 01:03:11;;;;;;;19.40;16.23;;;18.90;99.90;;;;;;5069046;28;20040;-88
2021/07/15 01:05:39;;;;;;;19.38;17.15;;;18.90;99.90;;;;;;5052408;28;20036;-89
2021/07/15 01:08:07;;;;;;;20.77;17.23;;;18.90;99.90;;;;;;5052197;28;20040;-89
2021/07/15 01:10:44;;;;;;;21.02;17.55;;;18.90;99.90;;;;;;5052132;28;20542;-90
2021/07/15 01:13:25;;;;;;;19.00;14.77;;;18.90;99.90;;;;;;5052312;28;20029;-90
2021/07/15 01:16:17;;;;;;;17.85;13.82;;;18.90;99.90;;;;;;5086815;28;20032;-91
2021/07/15 01:19:14;;;;;;;19.60;17.15;;;18.90;99.90;;;;;;5068939;28;20032;-90
2021/07/15 01:22:05;;;;;;;21.70;17.30;;;18.90;99.90;;;;;;5068756;28;20040;-91
2021/07/15 01:24:58;;;;;;;24.88;18.63;;;18.90;99.90;;;;;;5068836;28;20029;-92
2021/07/15 01:27:29;;;;;;;22.60;16.30;;;18.90;99.90;;;;;;5086457;28;20039;-89
2021/07/15 01:30:16;;;;;;;27.02;19.52;;;18.80;99.90;;;;;;5051954;28;20033;-89
2021/07/15 01:33:06;;;;;;;23.52;18.75;;;18.80;99.90;;;;;;5051967;28;20040;-87
2021/07/15 01:35:42;;;;;;;26.55;20.00;;;18.80;99.90;;;;;;5068739;28;20473;-88
2021/07/15 01:38:13;;;;;;;21.00;17.52;;;18.80;99.90;;;;;;5051915;28;20069;-89
2021/07/15 01:40:56;;;;;;;23.77;17.10;;;18.80;99.90;;;;;;5051914;28;20032;-90
2021/07/15 01:43:45;;;;;;;27.15;20.50;;;18.80;99.90;;;;;;5051825;28;20075;-90
2021/07/15 01:46:13;;;;;;;25.25;19.20;;;18.80;99.90;;;;;;5068391;28;20051;-91
2021/07/15 01:48:44;;;;;;;29.85;22.25;;;18.70;99.90;;;;;;5055616;28;20040;-90
2021/07/15 01:51:11;;;;;;;32.88;21.90;;;18.70;99.90;;;;;;5056100;28;20032;-91
2021/07/15 01:53:38;;;;;;;27.70;21.38;;;18.70;99.90;;;;;;5055945;28;20531;-91
2021/07/15 01:56:06;;;;;;;28.05;19.83;;;18.70;99.90;;;;;;5055460;28;20123;-91
2021/07/15 01:58:39;;;;;;;28.13;23.02;;;18.70;99.90;;;;;;5055733;28;20032;-92
2021/07/15 02:01:08;;;;;;;27.13;20.42;;;18.70;99.90;;;;;;5072442;28;20040;-91
2021/07/15 02:03:35;;;;;;;32.50;22.75;;;18.70;99.90;;;;;;5055185;28;20480;-91
2021/07/15 02:06:03;;;;;;;32.20;24.50;;;18.70;99.90;;;;;;5055132;28;20029;-91
2021/07/15 02:08:32;;;;;;;35.28;24.50;;;18.70;99.90;;;;;;5055587;28;20028;-93
2021/07/15 02:10:58;;;;;;;34.10;25.48;;;18.70;99.90;;;;;;5055872;28;20035;-92
2021/07/15 02:13:25;;;;;;;28.50;21.48;;;18.70;99.90;;;;;;5072275;28;20063;-95
2021/07/15 02:15:52;;;;;;;34.88;27.05;;;18.70;99.90;;;;;;5052071;28;20044;-94
2021/07/15 02:18:24;;;;;;;32.97;24.48;;;18.70;99.90;;;;;;5035551;28;20025;-95
2021/07/15 02:20:52;;;;;;;35.22;26.55;;;18.70;99.90;;;;;;5036163;28;20040;-90
2021/07/15 02:23:18;;;;;;;35.45;24.73;;;18.70;99.90;;;;;;5052286;28;20095;-92
2021/07/15 02:25:51;;;;;;;33.05;24.48;;;18.60;99.90;;;;;;5035741;28;20037;-93
2021/07/15 02:28:22;;;;;;;34.17;23.83;;;18.70;99.90;;;;;;5035320;28;20037;-93
2021/07/15 02:31:02;;;;;;;34.28;23.30;;;18.70;99.90;;;;;;5051932;28;20431;-93
2021/07/15 02:33:29;;;;;;;;;;;18.60;99.90;;;;;;5052128;28;20059;-93
2021/07/15 02:35:58;;;;;;;35.45;23.58;;;18.60;99.90;;;;;;5035184;28;19908;-94
2021/07/15 02:38:31;;;;;;;33.47;23.60;;;18.60;99.90;;;;;;5035017;28;20036;-94
2021/07/15 02:40:57;;;;;;;32.08;23.63;;;18.60;99.90;;;;;;5035201;28;20041;-93
2021/07/15 02:43:23;;;;;;;36.53;24.85;;;18.60;99.90;;;;;;5051514;28;20049;-87
2021/07/15 02:45:49;;;;;;;35.13;24.85;;;18.60;99.90;;;;;;5035115;28;20048;-92
2021/07/15 02:48:21;;;;;;;28.48;21.60;;;18.60;99.90;;;;;;5034848;28;20083;-92
2021/07/15 02:50:47;;;;;;;31.58;23.92;;;18.60;99.90;;;;;;5035030;28;20021;-93
2021/07/15 02:53:14;;;;;;;33.88;21.65;;;18.60;99.90;;;;;;5050476;28;20036;-92
2021/07/15 02:55:43;;;;;;;34.72;25.15;;;18.60;99.90;;;;;;5054334;28;20469;-93
2021/07/15 02:58:40;;;;;;;33.42;24.05;;;18.60;99.90;;;;;;5053488;28;20036;-94
2021/07/15 03:01:10;;;;;;;29.77;21.10;;;18.70;99.90;;;;;;5069423;28;20094;-93
2021/07/15 03:03:50;;;;;;;28.42;20.60;;;18.60;99.90;;;;;;5054469;28;20463;-94
2021/07/15 03:06:26;;;;;;;31.80;22.70;;;18.60;99.90;;;;;;5054338;28;20120;-94
2021/07/15 03:09:02;;;;;;;29.67;21.00;;;18.60;99.90;;;;;;5054247;28;20055;-95
2021/07/15 03:11:45;;;;;;;25.48;17.83;;;18.60;99.90;;;;;;5053933;28;20036;-94
2021/07/15 03:14:13;;;;;;;25.98;19.35;;;18.60;99.90;;;;;;5070336;28;20423;-93
2021/07/15 03:16:43;;;;;;;27.95;19.90;;;18.60;99.90;;;;;;5071146;28;20028;-94
2021/07/15 03:19:22;;;;;;;;;;;18.50;99.90;;;;;;5072341;28;20039;-95
2021/07/15 03:21:50;;;;;;;27.30;19.52;;;18.60;99.90;;;;;;5051660;28;19923;-91
2021/07/15 03:24:18;;;;;;;24.55;17.00;;;18.60;99.90;;;;;;5050810;28;20037;-90
2021/07/15 03:26:46;;;;;;;27.77;18.45;;;18.50;99.90;;;;;;5050754;28;20024;-88
2021/07/15 03:29:20;;;;;;;25.88;17.33;;;18.40;99.90;;;;;;5051055;28;20032;-87
2021/07/15 03:31:46;;;;;;;22.75;15.70;;;18.40;99.90;;;;;;5050736;28;20086;-84
2021/07/15 03:34:13;;;;;;;25.50;17.88;;;18.40;99.90;;;;;;5050549;28;20039;-87
2021/07/15 03:36:48;;;;;;;24.42;16.02;;;18.40;99.90;;;;;;5050519;28;20029;-87
2021/07/15 03:39:18;;;;;;;24.75;16.90;;;18.40;99.90;;;;;;5050572;28;20119;-88
2021/07/15 03:41:45;;;;;;;29.70;17.63;;;18.40;99.90;;;;;;5050303;28;20037;-88
2021/07/15 03:44:12;;;;;;;25.63;17.60;;;18.50;99.90;;;;;;5068091;28;20092;-88
2021/07/15 03:46:58;;;;;;;21.85;15.02;;;18.40;99.90;;;;;;5050106;28;20024;-88
2021/07/15 03:49:34;;;;;;;20.33;15.15;;;18.40;99.90;;;;;;4990490;28;20589;-89
2021/07/15 03:52:00;;;;;;;20.50;15.07;;;18.40;99.90;;;;;;4974276;28;20038;-87
2021/07/15 03:54:26;;;;;;;18.52;12.95;;;18.40;99.90;;;;;;4990382;28;20112;-88
2021/07/15 03:56:53;;;;;;;20.15;14.27;;;18.40;99.90;;;;;;4989897;28;20057;-88
2021/07/15 03:59:47;;;;;;;17.35;14.25;;;18.40;99.90;;;;;;4990254;28;20069;-87
2021/07/15 04:02:16;;;;;;;20.70;14.40;;;18.40;99.90;;;;;;4990339;28;20050;-87
2021/07/15 04:04:46;;;;;;;18.25;13.65;;;18.40;99.90;;;;;;4974167;28;20030;-86
2021/07/15 04:07:13;;;;;;;19.17;14.88;;;18.40;99.90;;;;;;4990233;28;20046;-86
2021/07/15 04:09:41;;;;;;;17.30;13.38;;;18.30;99.90;;;;;;4989892;28;20485;-87
2021/07/15 04:12:08;;;;;;;17.48;12.30;;;18.40;99.90;;;;;;4985904;28;20043;-87
2021/07/15 04:14:39;;;;;;;14.57;11.85;;;18.40;99.90;;;;;;4986679;28;20039;-87
2021/07/15 04:17:11;;;;;;;14.45;11.52;;;18.40;99.90;;;;;;4970508;28;20134;-87
2021/07/15 04:19:38;;;;;;;14.18;10.48;;;18.40;99.90;;;;;;4986544;28;20042;-87
2021/07/15 04:22:10;;;;;;;15.68;12.82;;;18.40;99.90;;;;;;4986311;28;20039;-86
2021/07/15 04:24:38;;;;;;;15.32;11.43;;;18.30;99.90;;;;;;4986654;28;20124;-88
2021/07/15 04:27:05;;;;;;;13.18;9.65;;;18.40;99.90;;;;;;5030933;28;20048;-85
2021/07/15 04:29:46;;;;;;;11.98;9.38;;;18.30;99.90;;;;;;5013257;28;20034;-88
2021/07/15 04:32:23;;;;;;;11.90;8.43;;;18.30;99.90;;;;;;5029844;28;20036;-89
2021/07/15 04:34:49;;;;;;;10.60;7.90;;;18.40;99.90;;;;;;5013300;28;20068;-89
2021/07/15 04:37:17;;;;;;;9.57;7.63;;;18.30;99.90;;;;;;5013129;28;20034;-88
2021/07/15 04:39:44;;;;;;;9.80;7.45;;;18.30;99.90;;;;;;5013122;28;20068;-89
2021/07/15 04:42:11;;;;;;;8.15;6.13;;;18.30;99.90;;;;;;5013374;28;20033;-89
2021/07/15 04:44:38;;;;;;;7.78;6.55;;;18.30;99.90;;;;;;5047193;28;20060;-86
2021/07/15 04:47:07;;;;;;;9.25;6.55;;;18.30;99.90;;;;;;5012993;28;20029;-87
2021/07/15 04:49:34;;;;;;;10.02;8.18;;;18.30;99.90;;;;;;5013051;28;20045;-87
2021/07/15 04:52:03;;;;;;;12.25;8.82;;;18.30;99.90;;;;;;5018690;28;20033;-86
2021/07/15 04:54:30;;;;;;;14.02;9.50;;;18.30;99.90;;;;;;5048948;28;20044;-86
2021/07/15 04:56:56;;;;;;;11.82;8.65;;;18.30;99.90;;;;;;5048736;28;20079;-85
2021/07/15 04:59:22;;;;;;;21.35;13.35;;;18.30;99.90;;;;;;5048950;28;20174;-87
2021/07/15 05:01:48;;;;;;;20.73;13.70;;;18.30;99.90;;;;;;5032475;28;20043;-87
2021/07/15 05:04:14;;;;;;;20.55;13.88;;;18.30;99.90;;;;;;5032315;28;20128;-87
2021/07/15 05:06:40;;;;;;;15.73;10.77;;;18.30;99.90;;;;;;5032241;28;20029;-88
2021/07/15 05:09:06;;;;;;;19.63;13.18;;;18.30;99.90;;;;;;5048917;28;20029;-84
2021/07/15 05:11:35;;;;;;;21.42;14.30;;;18.40;99.90;;;;;;5065484;28;20029;-89
2021/07/15 05:14:03;;;;;;;21.70;13.80;;;18.40;99.90;;;;;;5048921;28;20029;-91
2021/07/15 05:16:30;;;;;;;20.60;12.93;;;18.40;99.90;;;;;;5057318;28;20022;-87
2021/07/15 05:19:06;;;;;;;17.80;12.20;;;18.40;99.90;;;;;;5028236;28;20026;-89
2021/07/15 05:21:32;;;;;;;18.58;13.88;;;18.40;99.90;;;;;;5028534;28;20040;-88
2021/07/15 05:23:57;;;;;;;16.38;12.38;;;18.40;99.90;;;;;;5032509;28;20029;-88
2021/07/15 05:26:23;;;;;;;22.65;15.45;;;18.40;99.90;;;;;;5033845;28;20048;-86
2021/07/15 05:28:54;;;;;;;31.85;18.30;;;18.40;99.90;;;;;;5042828;28;20040;-87
2021/07/15 05:31:21;;;;;;;22.20;14.40;;;18.40;99.90;;;;;;5031331;28;20025;-88
2021/07/15 05:33:47;;;;;;;32.95;18.48;;;18.40;99.90;;;;;;5052323;28;20076;-88
2021/07/15 05:36:13;;;;;;;29.60;19.23;;;18.40;99.90;;;;;;5052529;28;20029;-88
2021/07/15 05:38:42;;;;;;;30.60;17.75;;;18.40;99.90;;;;;;5035936;28;20028;-87
2021/07/15 05:41:09;;;;;;;35.30;21.17;;;18.40;99.90;;;;;;5052705;28;20067;-88
2021/07/15 05:43:36;;;;;;;34.60;20.42;;;18.40;99.90;;;;;;5052413;28;20041;-90
2021/07/15 05:46:03;;;;;;;29.08;16.98;;;18.40;99.90;;;;;;5052546;28;20462;-89
2021/07/15 05:48:28;;;;;;;26.92;16.20;;;18.40;99.90;;;;;;5052535;23;20063;-89
2021/07/15 05:50:54;;;;;;;26.23;17.02;;;18.40;99.90;;;;;;5034454;28;20037;-87
2021/07/15 05:53:20;;;;;;;26.63;16.85;;;18.40;99.90;;;;;;5026518;28;20025;-86
2021/07/15 05:55:46;;;;;;;27.00;16.33;;;18.40;99.90;;;;;;5031379;28;20037;-87
2021/07/15 05:58:11;;;;;;;22.15;13.65;;;18.40;99.90;;;;;;5048159;28;20037;-87
2021/07/15 06:00:37;;;;;;;17.58;11.48;;;18.40;99.90;;;;;;5031826;28;20030;-86
2021/07/15 06:03:02;;;;;;;18.20;12.13;;;18.40;99.90;;;;;;5015367;28;20083;-88
2021/07/15 06:05:30;;;;;;;18.70;13.13;;;18.40;99.90;;;;;;5031529;28;20025;-88
2021/07/15 06:07:57;;;;;;;17.17;10.38;;;18.40;99.90;;;;;;5031599;28;20034;-88
2021/07/15 06:10:22;;;;;;;15.70;10.48;;;18.50;99.90;;;;;;5031951;28;20033;-88
2021/07/15 06:12:48;;;;;;;15.15;10.57;;;18.40;99.90;;;;;;5031106;28;20033;-87
2021/07/15 06:15:14;;;;;;;16.60;11.35;;;18.50;99.90;;;;;;5042532;28;20264;-89
2021/07/15 06:17:40;;;;;;;16.00;11.43;;;18.50;99.90;;;;;;5031350;28;20037;-88
2021/07/15 06:20:07;;;;;;;25.23;16.20;;;18.50;99.90;;;;;;5031273;28;20045;-87
2021/07/15 06:22:32;;;;;;;25.42;16.58;;;18.50;99.90;;;;;;5048402;28;20285;-87
2021/07/15 06:24:58;;;;;;;32.25;19.40;;;18.50;99.90;;;;;;5030747;28;20284;-88
2021/07/15 06:27:23;;;;;;;35.90;20.48;;;18.40;99.90;;;;;;5030696;28;20030;-88
2021/07/15 06:29:49;;;;;;;30.83;18.88;;;18.40;99.90;;;;;;4988997;28;20077;-87
2021/07/15 06:32:15;;;;;;;30.83;18.33;;;18.50;99.90;;;;;;5029373;28;20033;-88
2021/07/15 06:34:40;;;;;;;32.60;20.10;;;18.50;99.90;;;;;;5029512;28;20109;-86
2021/07/15 06:37:08;;;;;;;32.25;18.13;;;18.40;99.90;;;;;;5029416;28;20030;-90
2021/07/15 06:39:36;;;;;;;30.13;18.33;;;18.40;99.90;;;;;;5029968;28;20037;-89
2021/07/15 06:42:02;;;;;;;26.63;17.20;;;18.40;99.90;;;;;;5013872;28;20045;-88
2021/07/15 06:44:27;;;;;;;23.15;15.98;;;18.40;99.90;;;;;;5032955;28;20098;-86
2021/07/15 06:46:53;;;;;;;27.35;15.80;;;18.30;99.90;;;;;;5028602;28;20038;-88
2021/07/15 06:49:19;;;;;;;19.10;13.80;;;18.30;99.90;;;;;;5024252;28;20124;-86
2021/07/15 06:51:45;;;;;;;26.48;16.20;;;18.30;99.90;;;;;;5014051;28;20037;-87
2021/07/15 06:54:12;;;;;;;24.67;15.77;;;18.30;99.90;;;;;;5047297;28;20033;-90
2021/07/15 06:56:38;;;;;;;24.25;14.75;;;18.30;99.90;;;;;;5037762;28;20034;-88
2021/07/15 06:59:05;;;;;;;23.70;14.30;;;18.40;99.90;;;;;;5027159;28;20093;-87
2021/07/15 07:01:30;;;;;;;19.33;12.48;;;18.30;99.90;;;;;;5037913;28;20040;-84
2021/07/15 07:03:56;;;;;;;19.95;12.38;;;18.30;99.90;;;;;;5029032;28;20045;-87
2021/07/15 07:06:21;;;;;;;19.52;13.10;;;18.30;99.90;;;;;;5029586;28;20030;-85
2021/07/15 07:08:49;;;;;;;19.67;12.82;;;18.30;99.90;;;;;;5046056;28;20026;-89
2021/07/15 07:11:14;;;;;;;16.63;11.20;;;18.30;99.90;;;;;;5030275;28;20025;-87
2021/07/15 07:13:40;;;;;;;18.90;13.55;;;18.30;99.90;;;;;;5030351;28;20026;-88
2021/07/15 07:16:05;;;;;;;19.17;13.07;;;18.30;99.90;;;;;;5030166;28;20064;-89
2021/07/15 07:18:34;;;;;;;18.63;12.32;;;18.30;99.90;;;;;;5029991;28;20057;-89
2021/07/15 07:21:00;;;;;;;17.85;12.18;;;18.30;99.90;;;;;;5047947;28;20029;-90
2021/07/15 07:23:26;;;;;;;17.35;11.30;;;18.30;99.90;;;;;;5030093;28;20068;-90
2021/07/15 07:25:51;;;;;;;22.05;14.00;;;18.30;99.90;;;;;;5030183;28;20026;-90
2021/07/15 07:28:18;;;;;;;21.40;15.15;;;18.40;99.90;;;;;;5029802;28;20033;-89
2021/07/15 07:30:44;;;;;;;26.10;15.95;;;18.30;99.90;;;;;;5036688;28;20083;-89
2021/07/15 07:33:10;;;;;;;29.73;18.30;;;18.30;99.90;;;;;;5039363;28;20025;-89
2021/07/15 07:35:36;;;;;;;33.00;18.27;;;18.30;99.90;;;;;;5034474;28;20103;-90
2021/07/15 07:38:08;;;;;;;28.63;17.95;;;18.30;99.90;;;;;;5033718;28;20032;-90
2021/07/15 07:40:33;;;;;;;26.52;16.00;;;18.30;99.90;;;;;;5020128;28;20030;-89
2021/07/15 07:42:59;;;;;;;29.15;17.15;;;18.30;99.90;;;;;;5029181;28;20053;-92
2021/07/15 07:45:24;;;;;;;28.77;17.80;;;18.30;99.90;;;;;;5028323;28;20090;-85
2021/07/15 07:47:50;;;;;;;28.33;17.02;;;18.30;99.90;;;;;;5005437;28;20049;-92
2021/07/15 07:50:16;;;;;;;29.48;17.75;;;18.30;99.90;;;;;;4999157;28;20112;-88
2021/07/15 07:52:42;;;;;;;36.03;18.65;;;18.30;99.90;;;;;;5045214;28;20033;-92
2021/07/15 07:55:09;;;;;;;33.90;18.98;;;18.30;99.90;;;;;;5045109;28;20112;-90
2021/07/15 07:57:35;;;;;;;32.15;18.48;;;18.30;99.90;;;;;;5045040;28;20041;-89
2021/07/15 08:00:03;;;;;;;30.80;19.25;;;18.20;99.90;;;;;;5028733;28;20033;-91
2021/07/15 08:02:39;;;;;;;33.38;19.95;;;18.30;99.90;;;;;;5045161;28;20045;-90
2021/07/15 08:05:07;;;;;;;36.75;19.45;;;18.30;99.90;;;;;;5028402;28;20040;-89
2021/07/15 08:07:33;;;;;;;28.83;17.77;;;18.30;99.90;;;;;;5043314;28;20029;-87
2021/07/15 08:10:00;;;;;;;28.17;17.63;;;18.30;99.90;;;;;;5035494;28;20072;-91
2021/07/15 08:12:26;;;;;;;27.50;17.05;;;18.30;99.90;;;;;;5028859;28;20060;-92
2021/07/15 08:14:51;;;;;;;31.20;16.52;;;18.30;99.90;;;;;;5042299;28;20025;-89
2021/07/15 08:17:17;;;;;;;23.65;15.88;;;18.30;99.90;;;;;;5027393;28;20034;-88
2021/07/15 08:19:43;;;;;;;25.98;13.95;;;18.30;99.90;;;;;;5027724;28;20044;-93
2021/07/15 08:22:08;;;;;;;24.60;14.45;;;18.40;99.90;;;;;;5046123;28;20048;-92
2021/07/15 08:24:34;;;;;;;21.45;13.55;;;18.40;99.90;;;;;;5009719;28;20374;-89
2021/07/15 08:27:00;;;;;;;20.58;12.48;;;18.40;99.90;;;;;;5054564;28;20061;-90
2021/07/15 08:29:26;;;;;;;18.75;11.80;;;18.40;99.90;;;;;;5018417;28;20033;-88
2021/07/15 08:31:52;;;;;;;25.50;11.55;;;18.40;99.90;;;;;;5028220;28;20033;-94
2021/07/15 08:34:18;;;;;;;16.80;10.48;;;18.40;99.90;;;;;;5029738;28;20029;-94
2021/07/15 08:36:43;;;;;;;15.05;10.65;;;18.40;99.90;;;;;;5027969;28;20033;-94
2021/07/15 08:39:09;;;;;;;14.40;9.48;;;18.50;99.90;;;;;;5044891;28;20033;-90
2021/07/15 08:41:36;;;;;;;19.58;9.77;;;18.50;99.90;;;;;;5028994;28;20029;-88
2021/07/15 08:44:04;;;;;;;12.23;8.60;;;18.50;99.90;;;;;;5045824;28;20036;-93
2021/07/15 08:46:31;;;;;;;16.50;10.52;;;18.50;99.90;;;;;;5011255;28;20030;-92
2021/07/15 08:48:59;;;;;;;16.30;10.55;;;18.40;99.90;;;;;;5040699;28;20076;-91
2021/07/15 08:51:25;;;;;;;20.10;10.75;;;18.40;99.90;;;;;;5028216;28;20094;-95
2021/07/15 08:53:53;;;;;;;17.60;10.75;;;18.40;99.90;;;;;;5029460;28;20056;-86
2021/07/15 08:56:36;;;;;;;20.98;13.07;;;18.50;99.90;;;;;;5042326;28;20041;-96
2021/07/15 08:59:05;;;;;;;20.02;10.07;;;18.40;99.90;;;;;;5024137;28;20048;-96
2021/07/15 09:01:32;;;;;;;25.00;10.93;;;18.40;99.90;;;;;;5034587;28;20184;-94
2021/07/15 09:03:58;;;;;;;23.38;12.82;;;18.40;99.90;;;;;;5048141;28;20041;-92
2021/07/15 09:06:24;;;;;;;18.90;12.10;;;18.40;99.90;;;;;;5012043;28;20056;-92
2021/07/15 09:08:54;;;;;;;23.90;13.48;;;18.40;99.90;;;;;;5028255;28;20037;-92
2021/07/15 09:11:20;;;;;;;21.95;12.15;;;18.40;99.90;;;;;;5012887;28;20531;-95
2021/07/15 09:13:47;;;;;;;25.38;13.85;;;18.30;99.90;;;;;;5061997;28;20056;-93
2021/07/15 09:16:14;;;;;;;21.52;12.25;;;18.30;99.90;;;;;;5044685;28;20037;-90
2021/07/15 09:19:00;;;;;;;20.20;11.00;;;18.30;99.90;;;;;;5044893;28;20122;-92
2021/07/15 09:21:32;;;;;;;23.48;12.45;;;18.40;99.90;;;;;;5044647;28;20021;-93
2021/07/15 09:24:00;;;;;;;23.48;12.88;;;18.40;99.90;;;;;;5029522;28;20069;-89
2021/07/15 09:26:31;;;;;;;19.05;10.73;;;18.50;99.90;;;;;;5010869;28;20103;-93
2021/07/15 09:29:16;;;;;;;18.27;10.98;;;18.50;99.90;;;;;;5039060;28;20026;-91
2021/07/15 09:31:59;;;;;;;21.67;10.15;;;18.60;99.90;;;;;;5034788;28;20049;-95
2021/07/15 09:34:26;;;;;;;13.50;9.73;;;18.60;99.90;;;;;;5005621;28;20111;-94
2021/07/15 09:36:54;;;;;;;14.05;8.27;;;18.50;99.90;;;;;;5024143;28;20117;-94
2021/07/15 09:39:24;;;;;;;14.93;8.52;;;18.50;99.90;;;;;;5024186;28;20080;-92
2021/07/15 09:42:05;;;;;;;14.77;8.88;;;18.50;99.90;;;;;;5007538;28;20037;-90
2021/07/15 09:44:35;;;;;;;16.05;10.88;;;18.50;99.90;;;;;;4991818;28;20038;-92
2021/07/15 09:47:05;;;;;;;;;;;18.50;99.90;;;;;;4992475;28;20030;-93
2021/07/15 09:49:32;;;;;;;16.05;10.20;;;18.50;99.90;;;;;;4991560;28;19924;-95
2021/07/15 09:51:59;;;;;;;19.50;10.98;;;18.60;99.90;;;;;;4996624;28;20036;-94
2021/07/15 09:54:25;;;;;;;17.98;10.43;;;18.60;99.90;;;;;;5011002;28;20041;-94
2021/07/15 09:56:51;;;;;;;17.58;11.23;;;18.60;99.90;;;;;;5038953;28;20053;-92
2021/07/15 09:59:17;;;;;;;15.77;11.52;;;18.60;99.90;;;;;;5014538;28;20489;-92
2021/07/15 10:01:44;;;;;;;16.45;10.75;;;18.50;99.90;;;;;;5011492;28;20051;-93
2021/07/15 10:04:10;;;;;;;15.85;10.27;;;18.50;99.90;;;;;;5027116;28;20042;-94
2021/07/15 10:06:46;;;;;;;20.65;12.00;;;18.50;99.90;;;;;;5027310;28;20101;-94
2021/07/15 10:09:26;;;;;;;22.60;10.93;;;18.40;99.90;;;;;;5030139;28;20113;-96
2021/07/15 10:11:57;;;;;;;16.42;11.35;;;18.50;99.90;;;;;;5048026;28;20026;-94
2021/07/15 10:14:41;;;;;;;17.20;10.73;;;18.40;99.90;;;;;;5031217;28;20033;-95
2021/07/15 10:17:07;;;;;;;16.83;11.43;;;18.40;99.90;;;;;;5028495;28;20293;-94
2021/07/15 10:19:33;;;;;;;22.65;13.30;;;18.40;99.90;;;;;;5011130;28;20041;-92
2021/07/15 10:22:07;;;;;;;19.58;11.63;;;18.30;99.90;;;;;;5010822;28;20037;-94
2021/07/15 10:24:33;;;;;;;17.58;11.07;;;18.40;99.90;;;;;;5011185;28;20034;-91
2021/07/15 10:27:06;;;;;;;27.02;14.98;;;18.40;99.90;;;;;;5038127;28;20076;-94
2021/07/15 10:29:36;;;;;;;25.55;14.40;;;18.30;99.90;;;;;;5031253;28;20036;-93
2021/07/15 10:32:03;;;;;;;24.15;15.40;;;18.30;99.90;;;;;;5004550;28;20065;-91
2021/07/15 10:34:31;;;;;;;24.30;14.52;;;18.30;99.90;;;;;;5026475;28;20057;-95
2021/07/15 10:37:00;;;;;;;23.10;14.00;;;18.30;99.90;;;;;;5016103;28;20120;-94
2021/07/15 10:39:29;;;;;;;22.37;13.80;;;18.30;99.90;;;;;;5032496;28;20500;-90
2021/07/15 10:41:58;;;;;;;23.13;12.93;;;18.30;99.90;;;;;;5031045;28;20049;-93
2021/07/15 10:44:26;;;;;;;22.25;14.77;;;18.40;99.90;;;;;;5049872;28;20029;-96
2021/07/15 10:47:12;;;;;;;24.27;13.85;;;18.40;99.90;;;;;;5014774;28;20045;-92
2021/07/15 10:49:41;;;;;;;21.83;13.52;;;18.40;99.90;;;;;;4990730;28;20048;-93
2021/07/15 10:52:08;;;;;;;17.60;11.65;;;18.40;99.90;;;;;;4991275;28;20045;-95
2021/07/15 10:54:36;;;;;;;25.38;13.07;;;18.40;99.90;;;;;;5007118;28;20042;-95
2021/07/15 10:57:02;;;;;;;17.42;11.48;;;18.40;99.90;;;;;;4990413;28;20035;-95
2021/07/15 10:59:31;;;;;;;17.70;10.45;;;18.40;99.90;;;;;;4971974;28;20466;-89
2021/07/15 11:01:59;;;;;;;14.48;9.43;;;18.50;99.90;;;;;;5005904;28;20046;-92
2021/07/15 11:04:40;;;;;;;16.17;9.50;;;18.50;99.90;;;;;;4989987;28;20098;-90
2021/07/15 11:07:17;;;;;;;16.10;9.70;;;18.50;99.90;;;;;;4988944;28;20066;-88
2021/07/15 11:09:45;;;;;;;13.30;8.15;;;18.40;99.90;;;;;;4974681;28;20038;-95
2021/07/15 11:12:35;;;;;;;14.70;8.00;;;18.40;99.90;;;;;;4982615;28;20062;-94
2021/07/15 11:15:16;;;;;;;10.93;7.25;;;18.40;99.90;;;;;;4975799;28;20098;-92
2021/07/15 11:17:51;;;;;;;11.68;7.40;;;18.40;99.90;;;;;;4973089;28;20042;-94
2021/07/15 11:20:27;;;;;;;10.75;7.28;;;18.40;99.90;;;;;;5000353;28;20245;-96
2021/07/15 11:22:57;;;;;;;10.25;7.00;;;18.40;99.90;;;;;;4973181;28;20129;-89
2021/07/15 11:25:28;;;;;;;10.52;7.57;;;18.40;99.90;;;;;;4977029;28;20034;-92
2021/07/15 11:28:17;;;;;;;9.52;6.90;;;18.40;99.90;;;;;;5014907;28;20041;-86
2021/07/15 11:30:50;;;;;;;8.80;7.40;;;18.40;99.90;;;;;;5008758;28;20013;-90
2021/07/15 11:33:19;;;;;;;8.52;5.65;;;18.30;99.90;;;;;;5000778;28;20085;-85
2021/07/15 11:36:12;;;;;;;;;;;18.30;99.90;;;;;;5036348;28;20025;-92
2021/07/15 11:38:41;;;;;;;9.52;6.43;;;18.30;99.90;;;;;;5012801;28;20003;-92
2021/07/15 11:41:09;;;;;;;8.37;6.33;;;18.20;99.90;;;;;;5035173;28;20029;-86
2021/07/15 11:43:50;;;;;;;10.77;7.10;;;18.30;99.90;;;;;;5032692;28;20044;-86
2021/07/15 11:46:29;;;;;;;13.60;8.40;;;18.20;99.90;;;;;;5034024;28;20033;-81
2021/07/15 11:49:26;;;;;;;11.45;8.98;;;18.30;99.90;;;;;;5034339;28;20075;-87
2021/07/15 11:52:00;;;;;;;15.43;10.07;;;18.20;99.90;;;;;;5030897;28;20034;-84
2021/07/15 11:54:43;;;;;;;15.13;10.52;;;18.20;99.90;;;;;;5005953;28;20079;-84
2021/07/15 11:57:15;;;;;;;14.88;9.90;;;18.20;99.90;;;;;;5021779;28;20024;-87
2021/07/15 12:00:11;;;;;;;18.45;10.93;;;18.20;99.90;;;;;;5037885;28;20017;-90
2021/07/15 12:02:55;;;;;;;19.40;11.32;;;18.30;99.90;;;;;;5116283;23;20053;-94
2021/07/15 12:08:40;;;;;;;16.27;11.43;;;18.30;99.90;;;;;;5621421;23;20042;-95
2021/07/15 12:19:57;;;;;;;17.17;11.88;;;18.30;99.90;;;;;;4902732;29;20080;-92
2021/07/15 12:22:25;;;;;;;18.73;11.45;;;18.30;99.90;;;;;;4883924;29;20120;-96
2021/07/15 12:25:12;;;;;;;15.80;11.95;;;18.40;99.90;;;;;;4884861;23;20058;-94
2021/07/15 12:27:39;;;;;;;18.65;13.05;;;18.30;99.90;;;;;;4828041;29;20128;-96
2021/07/15 12:30:06;;;;;;;18.60;12.90;;;18.30;99.90;;;;;;4861119;29;20025;-96
2021/07/15 12:32:31;;;;;;;19.77;13.32;;;18.30;99.90;;;;;;4835979;29;20057;-96
2021/07/15 12:34:58;;;;;;;16.00;12.30;;;18.30;99.90;;;;;;4862799;29;20038;-94
2021/07/15 12:37:29;;;;;;;21.38;13.30;;;18.30;99.90;;;;;;4860535;29;20049;-96
2021/07/15 12:39:59;;;;;;;18.35;13.32;;;18.40;99.90;;;;;;4853529;29;20025;-96
2021/07/15 12:42:24;;;;;;;19.90;13.30;;;18.40;99.90;;;;;;4860067;29;20096;-95
2021/07/15 12:44:50;;;;;;;26.50;15.48;;;18.40;99.90;;;;;;4858878;29;20037;-95
2021/07/15 12:47:16;;;;;;;19.40;13.85;;;18.40;99.90;;;;;;4846470;29;20029;-92
2021/07/15 12:49:42;;;;;;;23.35;13.88;;;18.40;99.90;;;;;;4865637;29;20030;-96
2021/07/15 12:52:08;;;;;;;23.67;15.13;;;18.40;99.90;;;;;;4836749;29;20060;-94
2021/07/15 12:54:48;;;;;;;22.45;15.77;;;18.40;99.90;;;;;;4850190;29;20030;-92
2021/07/15 12:57:17;;;;;;;19.85;14.88;;;18.40;99.90;;;;;;4835818;29;20049;-96